Time;durP1;ratioP1;P1;durP2;ratioP2;P2;SDS_P1;SDS_P2;PMS_P1;PMS_P2;Temp;Humidity;BMP_temperature;BMP_pressure;BME280_temperature;BME280_humidity;BME280_pressure;Samples;Min_cycle;Max_cycle;Signal;HPM_P1;HPM_P2
2021/10/12 00:01:33;;;;;;;52.78;35.85;;;;;;;5.66;69.27;100404.84;1746311;81;21065;-68
2021/10/12 00:03:59;;;;;;;53.08;35.65;;;;;;;5.69;69.27;100402.07;1764095;81;21703;-67
2021/10/12 00:06:26;;;;;;;55.12;36.17;;;;;;;5.70;69.27;100395.89;1749003;81;21340;-68
2021/10/12 00:08:52;;;;;;;53.98;36.58;;;;;;;5.72;69.28;100397.11;1764653;81;21039;-67
2021/10/12 00:11:18;;;;;;;52.88;36.05;;;;;;;5.72;69.30;100398.42;1765075;81;20932;-67
2021/10/12 00:13:45;;;;;;;52.53;36.40;;;;;;;5.72;69.31;100399.26;1761378;81;20928;-67
2021/10/12 00:16:12;;;;;;;55.05;36.75;;;;;;;5.71;69.34;100398.05;1764729;81;21822;-67
2021/10/12 00:18:40;;;;;;;55.20;36.83;;;;;;;5.70;69.36;100390.66;1741751;81;21058;-68
2021/10/12 00:21:09;;;;;;;60.50;37.40;;;;;;;5.70;69.36;100388.03;1765802;81;21415;-68
2021/10/12 00:23:35;;;;;;;49.85;33.88;;;;;;;5.70;69.34;100388.03;1760995;81;20967;-67
2021/10/12 00:26:02;;;;;;;57.08;34.53;;;;;;;5.70;69.35;100388.03;1732751;81;20936;-67
2021/10/12 00:28:28;;;;;;;52.25;35.23;;;;;;;5.70;69.37;100385.87;1757191;81;21824;-68
2021/10/12 00:30:54;;;;;;;52.48;34.23;;;;;;;5.68;69.37;100381.17;1762397;79;20975;-67
2021/10/12 00:33:22;;;;;;;49.88;34.58;;;;;;;5.68;69.38;100380.70;1765435;81;20984;-67
2021/10/12 00:35:48;;;;;;;49.50;34.10;;;;;;;5.68;69.37;100382.48;1763873;79;21396;-68
2021/10/12 00:38:15;;;;;;;50.70;34.38;;;;;;;5.69;69.38;100382.41;1757855;81;20996;-67
2021/10/12 00:40:41;;;;;;;51.28;34.55;;;;;;;5.68;69.38;100380.70;1735762;81;22597;-67
2021/10/12 00:43:08;;;;;;;48.60;33.48;;;;;;;5.69;69.39;100378.48;1755147;81;21248;-66
2021/10/12 00:45:36;;;;;;;50.63;34.15;;;;;;;5.71;69.46;100371.84;1741406;80;20928;-67
2021/10/12 00:48:07;;;;;;;49.20;33.10;;;;;;;5.70;69.54;100367.53;1737015;81;20995;-67
2021/10/12 00:50:37;;;;;;;49.27;33.78;;;;;;;5.70;69.60;100367.06;1736785;81;20944;-67
2021/10/12 00:53:04;;;;;;;47.62;33.35;;;;;;;5.70;69.68;100362.30;1771011;80;22490;-67
2021/10/12 00:55:31;;;;;;;47.55;32.10;;;;;;;5.71;69.80;100362.20;1762039;80;21467;-67
2021/10/12 00:57:58;;;;;;;48.02;33.00;;;;;;;5.72;69.82;100355.18;1775839;80;21371;-67
2021/10/12 01:00:24;;;;;;;45.38;31.82;;;;;;;5.71;69.90;100349.09;1772344;80;20996;-68
2021/10/12 01:02:51;;;;;;;48.15;31.73;;;;;;;5.73;69.92;100347.22;1789759;80;21000;-67
2021/10/12 01:05:18;;;;;;;45.67;31.60;;;;;;;5.73;69.99;100349.00;1778971;80;21820;-67
2021/10/12 01:07:45;;;;;;;44.00;31.60;;;;;;;5.72;69.98;100348.16;1766893;79;21558;-67
2021/10/12 01:10:11;;;;;;;45.08;31.15;;;;;;;5.71;70.01;100342.55;1766776;80;21343;-67
2021/10/12 01:12:38;;;;;;;48.68;32.93;;;;;;;5.70;70.06;100337.40;1759083;81;21452;-67
2021/10/12 01:15:07;;;;;;;48.48;31.93;;;;;;;5.71;70.09;100337.30;1781675;80;20973;-67
2021/10/12 01:17:35;;;;;;;48.50;32.20;;;;;;;5.72;70.19;100333.74;1790115;80;21821;-67
2021/10/12 01:20:11;;;;;;;45.98;31.45;;;;;;;5.71;70.29;100332.06;1788062;80;20997;-67
2021/10/12 01:22:41;;;;;;;50.52;30.72;;;;;;;5.72;70.31;100331.59;1760099;80;21004;-68
2021/10/12 01:25:09;;;;;;;47.62;31.60;;;;;;;5.71;70.30;100333.38;1779276;80;20968;-67
2021/10/12 01:27:36;;;;;;;42.85;29.72;;;;;;;5.67;70.33;100326.61;1759684;80;20998;-68
2021/10/12 01:30:20;;;;;;;44.48;30.35;;;;;;;5.68;70.27;100326.98;1763848;80;21902;-68
2021/10/12 01:32:46;;;;;;;44.50;29.48;;;;;;;5.66;70.21;100322.30;1776486;80;20938;-68
2021/10/12 01:35:14;;;;;;;45.85;29.55;;;;;;;5.64;70.20;100321.56;1790004;80;20957;-66
2021/10/12 01:37:50;;;;;;;41.95;29.77;;;;;;;5.63;70.16;100325.13;1780153;80;21012;-67
2021/10/12 01:40:17;;;;;;;43.17;30.02;;;;;;;5.59;70.19;100322.29;1788891;80;20952;-68
2021/10/12 01:42:44;;;;;;;46.25;29.72;;;;;;;5.58;70.18;100321.92;1769570;80;21760;-68
2021/10/12 01:45:11;;;;;;;42.08;29.67;;;;;;;5.56;70.22;100319.02;1775306;80;21491;-67
2021/10/12 01:47:39;;;;;;;44.60;29.63;;;;;;;5.54;70.26;100316.97;1765432;80;20964;-67
2021/10/12 01:50:07;;;;;;;42.43;29.63;;;;;;;5.51;70.29;100320.62;1759604;80;20973;-67
2021/10/12 01:52:35;;;;;;;44.30;30.17;;;;;;;5.52;70.27;100310.98;1775863;80;20988;-66
2021/10/12 01:55:01;;;;;;;43.65;29.80;;;;;;;5.54;70.32;100315.19;1769181;80;21818;-67
2021/10/12 01:57:28;;;;;;;43.20;29.48;;;;;;;5.55;70.45;100308.17;1780478;80;21086;-68
2021/10/12 01:59:55;;;;;;;44.30;30.27;;;;;;;5.57;70.56;100311.53;1790123;80;20933;-67
2021/10/12 02:02:21;;;;;;;45.58;30.08;;;;;;;5.56;70.62;100301.52;1773629;80;21005;-68
2021/10/12 02:04:48;;;;;;;43.87;30.55;;;;;;;5.57;70.72;100303.20;1761444;80;20992;-67
2021/10/12 02:07:14;;;;;;;42.83;29.90;;;;;;;5.58;70.79;100298.80;1779854;79;22474;-67
2021/10/12 02:09:41;;;;;;;42.35;29.72;;;;;;;5.58;70.83;100300.95;1769543;80;21016;-67
2021/10/12 02:12:07;;;;;;;45.75;29.30;;;;;;;5.58;70.92;100293.56;1779705;80;21023;-67
2021/10/12 02:14:33;;;;;;;44.18;29.80;;;;;;;5.60;70.96;100296.97;1779338;80;20972;-67
2021/10/12 02:17:00;;;;;;;48.38;30.35;;;;;;;5.59;70.96;100298.70;1773619;80;21110;-68
2021/10/12 02:19:27;;;;;;;40.73;28.67;;;;;;;5.59;71.00;100299.17;1767391;80;21846;-68
2021/10/12 02:21:53;;;;;;;46.60;29.02;;;;;;;5.59;71.03;100298.70;1777582;80;20984;-68
2021/10/12 02:24:19;;;;;;;40.67;28.55;;;;;;;5.61;71.06;100297.33;1780595;80;21032;-68
2021/10/12 02:26:46;;;;;;;39.63;28.17;;;;;;;5.58;71.07;100291.78;1758692;81;21063;-68
2021/10/12 02:29:12;;;;;;;41.25;29.30;;;;;;;5.59;71.16;100287.39;1760819;80;21380;-68
2021/10/12 02:31:39;;;;;;;43.42;29.02;;;;;;;5.60;71.25;100289.94;1765144;80;21917;-68
2021/10/12 02:34:05;;;;;;;44.53;28.65;;;;;;;5.62;71.31;100286.75;1760410;80;21029;-68
2021/10/12 02:36:32;;;;;;;43.98;29.27;;;;;;;5.63;71.39;100287.59;1788738;80;20989;-68
2021/10/12 02:38:59;;;;;;;42.15;29.18;;;;;;;5.64;71.44;100278.80;1786240;80;21289;-67
2021/10/12 02:41:26;;;;;;;43.75;29.45;;;;;;;5.67;71.57;100285.99;1770891;80;21019;-67
2021/10/12 02:43:52;;;;;;;40.73;28.23;;;;;;;5.70;71.64;100280.59;1778336;80;21800;-67
2021/10/12 02:46:19;;;;;;;39.78;28.40;;;;;;;5.71;71.64;100279.66;1746059;81;21376;-66
2021/10/12 02:48:47;;;;;;;46.05;28.52;;;;;;;5.73;71.64;100283.02;1773634;80;21368;-68
2021/10/12 02:51:14;;;;;;;36.28;27.77;;;;;;;5.73;71.65;100275.16;1790455;80;20981;-67
2021/10/12 02:53:41;;;;;;;40.73;29.07;;;;;;;5.74;71.68;100272.91;1769356;80;20992;-67
2021/10/12 02:56:09;;;;;;;42.55;29.15;;;;;;;5.75;71.71;100268.50;1751595;81;22799;-66
2021/10/12 02:58:35;;;;;;;40.75;28.60;;;;;;;5.77;71.73;100261.85;1734885;82;20956;-67
2021/10/12 03:01:02;;;;;;;43.02;28.83;;;;;;;5.77;71.75;100257.45;1734934;82;21422;-67
2021/10/12 03:03:29;;;;;;;46.88;28.75;;;;;;;5.79;71.71;100258.66;1736084;81;20956;-67
2021/10/12 03:05:55;;;;;;;40.58;28.67;;;;;;;5.80;71.66;100259.06;1735144;82;20959;-68
2021/10/12 03:08:23;;;;;;;41.45;29.42;;;;;;;5.79;71.59;100250.36;1741397;81;21106;-68
2021/10/12 03:10:50;;;;;;;51.70;33.55;;;;;;;5.80;71.53;100257.75;1751348;80;21113;-67
2021/10/12 03:13:16;;;;;;;48.85;30.00;;;;;;;5.79;71.52;100254.73;1758509;81;20968;-68
2021/10/12 03:15:43;;;;;;;44.27;30.75;;;;;;;5.79;71.54;100257.34;1759968;81;21398;-68
2021/10/12 03:18:10;;;;;;;44.75;31.25;;;;;;;5.80;71.63;100255.13;1750383;81;21075;-68
2021/10/12 03:20:36;;;;;;;43.20;31.65;;;;;;;5.80;71.58;100252.52;1751466;81;21821;-67
2021/10/12 03:23:03;;;;;;;47.55;32.55;;;;;;;5.79;71.58;100257.34;1758318;81;21030;-67
2021/10/12 03:25:29;;;;;;;43.05;30.00;;;;;;;5.74;71.58;100258.95;1754753;81;21350;-67
2021/10/12 03:27:55;;;;;;;42.03;29.98;;;;;;;5.71;71.56;100253.91;1753335;79;21272;-67
2021/10/12 03:30:22;;;;;;;44.58;31.05;;;;;;;5.67;71.60;100253.70;1740043;81;21079;-67
2021/10/12 03:32:48;;;;;;;44.05;29.65;;;;;;;5.65;71.56;100255.12;1734981;82;21868;-68
2021/10/12 03:35:18;;;;;;;43.05;29.10;;;;;;;5.64;71.59;100256.05;1734977;82;21399;-67
2021/10/12 03:37:43;;;;;;;41.10;28.62;;;;;;;5.63;71.65;100255.69;1743494;81;20944;-67
2021/10/12 03:40:11;;;;;;;38.53;28.07;;;;;;;5.64;71.69;100256.05;1760884;81;21509;-69
2021/10/12 03:42:37;;;;;;;37.78;27.82;;;;;;;5.64;71.75;100252.12;1748536;81;21035;-67
2021/10/12 03:45:05;;;;;;;41.70;28.17;;;;;;;5.66;71.77;100249.41;1734962;82;21841;-68
2021/10/12 03:47:32;;;;;;;39.27;28.25;;;;;;;5.68;71.82;100247.06;1736511;81;20988;-68
2021/10/12 03:49:58;;;;;;;38.28;28.32;;;;;;;5.69;71.92;100243.53;1742018;81;21054;-68
2021/10/12 03:52:25;;;;;;;41.60;28.25;;;;;;;5.69;71.98;100239.60;1745692;81;21067;-68
2021/10/12 03:54:53;;;;;;;41.73;30.05;;;;;;;5.70;72.07;100237.35;1753327;81;21043;-68
2021/10/12 03:57:19;;;;;;;41.30;31.10;;;;;;;5.74;72.44;100235.38;1763122;81;21824;-68
2021/10/12 03:59:46;;;;;;;42.33;30.23;;;;;;;5.79;72.72;100233.33;1758512;81;20952;-68
2021/10/12 04:02:12;;;;;;;46.48;30.05;;;;;;;5.84;73.04;100231.72;1742928;81;21055;-68
2021/10/12 04:04:39;;;;;;;42.38;29.77;;;;;;;5.90;73.23;100233.53;1749691;81;20955;-68
2021/10/12 04:07:06;;;;;;;44.73;31.12;;;;;;;5.96;73.36;100230.50;1762776;81;20952;-67
2021/10/12 04:09:33;;;;;;;43.25;30.20;;;;;;;6.01;73.44;100227.61;1752491;81;22467;-69
2021/10/12 04:11:59;;;;;;;40.10;29.98;;;;;;;6.06;73.55;100222.91;1736114;81;20944;-70
2021/10/12 04:14:26;;;;;;;42.35;29.75;;;;;;;6.09;73.62;100224.05;1750725;81;21364;-69
2021/10/12 04:16:54;;;;;;;46.42;31.57;;;;;;;6.11;73.70;100220.84;1753517;79;20994;-70
2021/10/12 04:19:20;;;;;;;42.83;29.85;;;;;;;6.12;73.74;100223.84;1763928;81;21010;-68
2021/10/12 04:21:48;;;;;;;42.80;30.48;;;;;;;6.13;73.78;100221.59;1751874;81;20971;-69
2021/10/12 04:24:15;;;;;;;40.65;30.65;;;;;;;6.17;73.87;100217.81;1746149;81;20940;-70
2021/10/12 04:26:42;;;;;;;40.90;29.37;;;;;;;6.20;73.93;100216.33;1749265;81;21027;-70
2021/10/12 04:29:09;;;;;;;45.05;30.62;;;;;;;6.23;74.02;100206.95;1750827;81;20960;-70
2021/10/12 04:31:35;;;;;;;38.90;29.07;;;;;;;6.27;74.07;100211.08;1762185;80;21407;-70
2021/10/12 04:34:01;;;;;;;49.18;29.50;;;;;;;6.31;74.04;100213.86;1747243;81;22814;-70
2021/10/12 04:36:28;;;;;;;40.58;28.27;;;;;;;6.33;73.97;100215.06;1744264;81;20928;-70
2021/10/12 04:38:55;;;;;;;38.95;27.67;;;;;;;6.37;73.99;100208.70;1747966;81;21000;-70
2021/10/12 04:41:21;;;;;;;42.35;27.35;;;;;;;6.41;74.05;100211.95;1743324;81;21054;-71
2021/10/12 04:43:48;;;;;;;37.73;26.95;;;;;;;6.45;74.07;100205.09;1755245;81;21409;-70
2021/10/12 04:46:15;;;;;;;36.10;26.42;;;;;;;6.50;74.16;100196.93;1747904;81;21796;-70
2021/10/12 04:48:41;;;;;;;37.33;26.27;;;;;;;6.52;74.15;100199.81;1761781;81;21279;-71
2021/10/12 04:51:08;;;;;;;37.63;26.77;;;;;;;6.56;74.17;100203.06;1721573;81;21004;-70
2021/10/12 04:53:34;;;;;;;41.55;26.60;;;;;;;6.59;74.21;100205.04;1748097;80;21661;-70
2021/10/12 04:56:00;;;;;;;39.58;25.43;;;;;;;6.64;74.20;100210.45;1763234;81;21501;-70
2021/10/12 04:58:28;;;;;;;40.73;26.25;;;;;;;6.67;74.19;100209.80;1763504;80;22236;-71
2021/10/12 05:00:54;;;;;;;40.03;26.12;;;;;;;6.72;74.24;100210.79;1743234;80;20992;-71
2021/10/12 05:03:21;;;;;;;43.28;26.50;;;;;;;6.77;74.28;100203.47;1758084;81;21019;-71
2021/10/12 05:05:47;;;;;;;40.58;24.40;;;;;;;6.82;74.32;100208.77;1739263;81;21418;-72
2021/10/12 05:08:14;;;;;;;39.13;26.05;;;;;;;6.88;74.36;100206.21;1764117;81;20955;-71
2021/10/12 05:10:41;;;;;;;39.65;25.70;;;;;;;6.94;74.36;100207.56;1746595;81;21819;-71
2021/10/12 05:13:10;;;;;;;36.95;25.75;;;;;;;6.99;74.35;100206.80;1746938;81;21059;-71
2021/10/12 05:15:37;;;;;;;35.83;24.57;;;;;;;7.06;74.39;100201.52;1734941;82;21034;-70
2021/10/12 05:18:10;;;;;;;39.65;24.92;;;;;;;7.12;74.44;100197.98;1738872;81;21015;-70
2021/10/12 05:20:33;;;;;;;36.70;23.98;;;;;;;7.18;74.50;100196.27;1742503;81;21007;-70
2021/10/12 05:22:59;;;;;;;32.05;25.10;;;;;;;7.26;74.50;100199.69;1745094;81;22458;-70
2021/10/12 05:25:27;;;;;;;40.10;25.30;;;;;;;7.34;74.55;100203.11;1744348;81;20967;-70
2021/10/12 05:27:53;;;;;;;41.77;26.10;;;;;;;7.43;74.58;100199.82;1735413;81;21498;-71
2021/10/12 05:30:24;;;;;;;37.80;26.05;;;;;;;7.53;74.60;100201.34;1737065;81;21450;-71
2021/10/12 05:32:48;;;;;;;36.38;24.60;;;;;;;7.62;74.64;100198.06;1735395;81;21396;-70
2021/10/12 05:35:15;;;;;;;36.35;23.77;;;;;;;7.71;74.58;100200.05;1739705;81;22217;-70
2021/10/12 05:37:41;;;;;;;45.28;24.18;;;;;;;7.80;74.49;100199.41;1752003;81;21043;-70
2021/10/12 05:40:10;;;;;;;40.58;23.05;;;;;;;7.89;74.38;100197.45;1756911;81;20991;-70
2021/10/12 05:42:36;;;;;;;45.45;23.92;;;;;;;7.97;74.26;100199.06;1762559;81;21450;-71
2021/10/12 05:45:03;;;;;;;32.67;22.98;;;;;;;8.04;74.05;100192.42;1749968;81;21002;-70
2021/10/12 05:47:29;;;;;;;39.63;23.02;;;;;;;8.13;73.87;100194.86;1734961;82;22177;-71
2021/10/12 05:49:56;;;;;;;31.95;22.22;;;;;;;8.23;73.70;100185.83;1735180;81;20936;-71
2021/10/12 05:52:24;;;;;;;30.20;21.35;;;;;;;8.31;73.54;100186.13;1764377;81;21000;-71
2021/10/12 05:55:04;;;;;;;31.17;20.72;;;;;;;8.40;73.34;100184.16;1751589;80;21502;-71
2021/10/12 05:57:36;;;;;;;33.50;21.68;;;;;;;8.49;73.14;100177.36;1757061;81;20983;-70
2021/10/12 05:59:50;;;;;;;31.15;20.08;;;;;;;8.59;72.94;100172.64;1756685;81;22218;-71
2021/10/12 06:02:16;;;;;;;30.15;20.72;;;;;;;8.68;72.68;100175.03;1759565;81;21391;-70
2021/10/12 06:04:43;;;;;;;32.30;20.82;;;;;;;8.78;72.41;100177.82;1759605;80;20984;-70
2021/10/12 06:07:09;;;;;;;35.75;20.85;;;;;;;8.87;72.20;100174.50;1759014;81;21117;-70
2021/10/12 06:09:38;;;;;;;28.25;19.82;;;;;;;8.97;71.89;100175.95;1754866;81;21071;-71
2021/10/12 06:12:06;;;;;;;30.50;20.00;;;;;;;9.08;71.59;100178.64;1737662;81;20988;-67
2021/10/12 06:14:35;;;;;;;34.00;20.08;;;;;;;9.16;71.27;100179.70;1735604;81;20979;-68
2021/10/12 06:17:02;;;;;;;33.23;19.48;;;;;;;9.25;70.88;100180.80;1759640;81;20957;-69
2021/10/12 06:19:28;;;;;;;30.17;20.52;;;;;;;9.33;70.67;100181.05;1744534;81;20976;-69
2021/10/12 06:21:54;;;;;;;27.15;20.15;;;;;;;9.44;70.26;100178.42;1729691;83;20999;-69
2021/10/12 06:24:21;;;;;;;30.02;19.98;;;;;;;9.54;69.92;100173.27;1729450;83;22204;-71
2021/10/12 06:26:47;;;;;;;27.00;19.17;;;;;;;9.64;69.50;100170.27;1712444;81;21411;-70
2021/10/12 06:29:13;;;;;;;26.35;18.92;;;;;;;9.74;68.97;100161.15;1729473;82;21047;-69
2021/10/12 06:31:40;;;;;;;31.05;20.05;;;;;;;9.84;68.60;100162.09;1729387;83;21071;-70
2021/10/12 06:34:07;;;;;;;26.30;19.77;;;;;;;9.94;68.14;100160.88;1731474;81;20980;-68
2021/10/12 06:36:33;;;;;;;28.17;19.42;;;;;;;10.03;67.80;100153.55;1729552;83;21800;-71
2021/10/12 06:39:00;;;;;;;27.52;18.82;;;;;;;10.11;67.32;100153.77;1729418;82;21561;-70
2021/10/12 06:41:26;;;;;;;27.20;18.35;;;;;;;10.20;66.87;100148.23;1731803;81;21394;-69
2021/10/12 06:43:53;;;;;;;29.82;20.12;;;;;;;10.26;66.47;100147.77;1743055;81;21247;-69
2021/10/12 06:46:19;;;;;;;31.07;19.90;;;;;;;10.28;66.03;100142.72;1732829;81;20940;-67
2021/10/12 06:48:47;;;;;;;28.85;20.17;;;;;;;10.38;65.83;100147.24;1736589;81;20921;-67
2021/10/12 06:51:14;;;;;;;27.73;18.77;;;;;;;10.44;65.43;100140.98;1748218;81;21083;-67
2021/10/12 06:53:44;;;;;;;29.70;20.62;;;;;;;10.49;64.79;100136.63;1739082;81;21027;-66
2021/10/12 06:56:10;;;;;;;27.82;20.20;;;;;;;10.53;64.54;100128.83;1764838;80;20956;-67
2021/10/12 06:58:37;;;;;;;30.55;19.77;;;;;;;10.56;64.41;100125.44;1762391;79;20940;-66
2021/10/12 07:01:03;;;;;;;33.85;21.20;;;;;;;10.64;64.03;100131.89;1755456;81;21860;-68
2021/10/12 07:03:30;;;;;;;32.33;20.23;;;;;;;10.68;63.78;100128.85;1735386;81;21034;-66
2021/10/12 07:05:57;;;;;;;33.08;21.05;;;;;;;10.77;63.61;100121.96;1762122;81;21398;-67
2021/10/12 07:08:24;;;;;;;34.53;20.80;;;;;;;10.86;63.19;100123.83;1752970;81;21034;-66
2021/10/12 07:10:52;;;;;;;30.15;20.23;;;;;;;10.97;62.95;100128.20;1760029;81;21058;-67
2021/10/12 07:13:26;;;;;;;31.75;20.35;;;;;;;11.08;62.47;100129.44;1749554;81;21027;-66
2021/10/12 07:15:48;;;;;;;30.68;20.10;;;;;;;11.19;61.97;100129.36;1756101;81;20984;-65
2021/10/12 07:18:17;;;;;;;30.02;19.62;;;;;;;11.28;61.23;100122.45;1753117;81;20944;-66
2021/10/12 07:20:43;;;;;;;27.95;18.90;;;;;;;11.39;60.80;100125.86;1734565;82;20976;-65
2021/10/12 07:23:10;;;;;;;28.07;18.65;;;;;;;11.51;59.82;100121.30;1734230;82;20997;-66
2021/10/12 07:25:36;;;;;;;23.22;16.93;;;;;;;11.61;58.91;100116.05;1734044;82;21844;-66
2021/10/12 07:28:03;;;;;;;23.77;18.77;;;;;;;11.68;57.82;100108.77;1743091;81;21042;-66
2021/10/12 07:30:31;;;;;;;33.33;19.32;;;;;;;11.73;57.52;100107.86;1751864;81;20988;-67
2021/10/12 07:32:57;;;;;;;28.98;17.45;;;;;;;11.75;57.19;100099.29;1748095;81;21047;-66
2021/10/12 07:35:24;;;;;;;32.03;16.17;;;;;;;11.84;57.04;100100.31;1754060;81;21036;-66
2021/10/12 07:37:51;;;;;;;24.47;17.35;;;;;;;11.88;55.97;100108.35;1743378;81;21832;-66
2021/10/12 07:40:18;;;;;;;30.02;16.52;;;;;;;11.89;55.45;100098.11;1742146;81;20993;-66
2021/10/12 07:42:44;;;;;;;27.22;16.17;;;;;;;11.92;55.49;100100.47;1742231;81;21004;-67
2021/10/12 07:45:10;;;;;;;28.77;15.78;;;;;;;11.95;54.91;100096.22;1759473;81;21039;-66
2021/10/12 07:47:37;;;;;;;27.80;16.67;;;;;;;12.01;54.87;100093.03;1761438;81;21071;-67
2021/10/12 07:50:07;;;;;;;28.98;17.62;;;;;;;12.10;54.84;100097.16;1743718;81;21820;-66
2021/10/12 07:52:35;;;;;;;27.52;18.80;;;;;;;12.13;54.30;100101.68;1748007;81;21035;-67
2021/10/12 07:57:34;;;;;;;24.65;17.07;;;;;;;12.20;53.93;100099.32;1773989;80;21059;-67
2021/10/12 08:00:01;;;;;;;23.20;15.40;;;;;;;12.20;53.69;100098.83;1758837;81;21542;-67
2021/10/12 08:02:27;;;;;;;27.27;15.58;;;;;;;12.22;53.08;100094.72;1770569;80;22500;-67
2021/10/12 08:04:53;;;;;;;24.45;15.28;;;;;;;12.20;52.49;100088.24;1713314;80;21000;-68
2021/10/12 08:07:23;;;;;;;23.77;16.40;;;;;;;12.21;52.37;100093.05;1735849;81;21507;-69
2021/10/12 08:09:51;;;;;;;27.93;16.20;;;;;;;12.19;52.64;100081.77;1770190;80;21554;-68
2021/10/12 08:12:17;;;;;;;24.87;17.45;;;;;;;12.19;52.90;100083.09;1777319;80;20953;-69
2021/10/12 08:14:47;;;;;;;23.67;17.45;;;;;;;12.16;53.11;100089.97;1790273;80;22616;-68
2021/10/12 08:17:12;;;;;;;26.80;18.75;;;;;;;12.17;53.47;100080.59;1767764;81;20952;-68
2021/10/12 08:19:39;;;;;;;29.45;18.62;;;;;;;12.18;53.79;100074.80;1767224;81;20944;-69
2021/10/12 08:22:05;;;;;;;27.82;19.85;;;;;;;12.22;54.35;100078.34;1766943;81;20947;-67
2021/10/12 08:24:31;;;;;;;29.05;18.80;;;;;;;12.29;54.58;100073.33;1737394;82;21019;-69
2021/10/12 08:26:58;;;;;;;32.63;19.67;;;;;;;12.35;54.75;100072.75;1728074;81;22178;-69
2021/10/12 08:29:27;;;;;;;36.00;21.33;;;;;;;12.37;54.91;100073.47;1737160;81;20991;-69
2021/10/12 08:31:53;;;;;;;31.62;20.37;;;;;;;12.35;54.75;100071.92;1762939;81;21426;-70
2021/10/12 08:34:19;;;;;;;30.75;20.45;;;;;;;12.29;55.31;100063.58;1753828;81;21015;-70
2021/10/12 08:36:46;;;;;;;27.87;19.37;;;;;;;12.30;55.32;100062.59;1786944;80;20928;-69
2021/10/12 08:39:13;;;;;;;26.87;19.12;;;;;;;12.36;55.29;100061.21;1757181;81;21795;-70
2021/10/12 08:42:06;;;;;;;26.95;18.37;;;;;;;12.45;55.24;100060.83;1746481;81;20995;-69
2021/10/12 08:44:53;;;;;;;25.77;17.10;;;;;;;12.56;54.70;100062.85;1744159;81;21007;-69
2021/10/12 08:47:23;;;;;;;26.37;18.20;;;;;;;12.63;53.19;100052.98;1739129;81;21086;-68
2021/10/12 08:49:51;;;;;;;29.77;17.20;;;;;;;12.67;53.58;100051.74;1775353;80;21087;-69
2021/10/12 08:52:18;;;;;;;25.05;16.90;;;;;;;12.76;53.01;100044.27;1775943;80;22185;-68
2021/10/12 08:54:44;;;;;;;27.60;17.17;;;;;;;12.81;52.52;100032.23;1769042;79;21445;-65
2021/10/12 08:57:11;;;;;;;23.87;17.17;;;;;;;12.87;52.10;100031.66;1765477;80;21513;-70
2021/10/12 08:59:38;;;;;;;23.80;17.15;;;;;;;12.95;51.87;100033.59;1745069;81;21121;-69
2021/10/12 09:02:06;;;;;;;27.37;17.48;;;;;;;13.04;50.79;100031.41;1754780;81;21036;-68
2021/10/12 09:04:41;;;;;;;22.58;15.78;;;;;;;13.11;51.21;100031.14;1699521;81;21746;-70
2021/10/12 09:07:19;;;;;;;32.73;16.48;;;;;;;13.22;50.49;100031.50;1751166;81;21343;-70
2021/10/12 09:09:46;;;;;;;27.45;15.23;;;;;;;13.26;50.28;100028.05;1735297;81;21401;-70
2021/10/12 09:12:12;;;;;;;48.38;17.27;;;;;;;13.37;50.56;100027.84;1751348;81;21529;-70
2021/10/12 09:14:56;;;;;;;23.40;14.83;;;;;;;13.49;49.51;100030.63;1743536;81;21489;-69
2021/10/12 09:17:34;;;;;;;;;;;;;;;13.59;48.89;100023.44;1749973;81;21829;-68
2021/10/12 09:20:13;;;;;;;25.72;13.83;;;;;;;13.68;47.66;100017.73;1765238;80;20195;-72
2021/10/12 09:23:03;;;;;;;22.90;14.80;;;;;;;13.75;47.73;100012.17;1760803;81;21505;-72
2021/10/12 09:25:37;;;;;;;25.97;14.45;;;;;;;13.83;47.03;100016.23;1764042;81;21337;-71
2021/10/12 09:28:04;;;;;;;24.92;14.65;;;;;;;13.90;47.48;100008.51;1764102;81;21443;-70
2021/10/12 09:30:37;;;;;;;23.52;14.63;;;;;;;14.03;47.74;100003.64;1764088;81;21884;-69
2021/10/12 09:33:07;;;;;;;23.18;14.28;;;;;;;14.12;47.22;99996.08;1732470;81;21466;-70
2021/10/12 09:35:34;;;;;;;21.17;13.93;;;;;;;14.17;46.78;99992.95;1736367;81;21497;-70
2021/10/12 09:38:07;;;;;;;23.60;15.48;;;;;;;14.17;47.12;99993.78;1734009;82;21093;-70
2021/10/12 09:40:36;;;;;;;22.17;14.87;;;;;;;14.18;47.13;99990.13;1733494;82;22046;-70
2021/10/12 09:43:03;;;;;;;29.30;15.65;;;;;;;14.22;47.21;99980.89;1735750;81;22607;-69
2021/10/12 09:45:36;;;;;;;22.32;13.62;;;;;;;14.32;47.44;99980.79;1750710;80;21078;-69
2021/10/12 09:48:30;;;;;;;24.07;14.60;;;;;;;14.38;47.02;99975.33;1703093;82;21489;-69
2021/10/12 09:51:11;;;;;;;23.07;14.00;;;;;;;14.36;47.11;99974.66;1735166;81;21516;-71
2021/10/12 09:53:42;;;;;;;21.65;14.73;;;;;;;14.44;46.97;99968.08;1738617;81;21537;-70
2021/10/12 09:56:11;;;;;;;22.98;14.45;;;;;;;14.53;46.98;99965.34;1778396;80;21821;-69
2021/10/12 09:58:39;;;;;;;33.73;16.65;;;;;;;14.66;47.00;99960.09;1788684;79;20956;-71
2021/10/12 10:01:07;;;;;;;22.50;15.43;;;;;;;14.82;47.57;99954.86;1788661;80;21577;-71
2021/10/12 10:03:34;;;;;;;23.40;14.13;;;;;;;14.97;47.68;99950.62;1788730;80;21047;-69
2021/10/12 10:06:13;;;;;;;23.52;14.30;;;;;;;15.10;47.06;99949.66;1788808;79;21031;-69
2021/10/12 10:08:48;;;;;;;18.40;12.30;;;;;;;15.10;45.92;99948.33;1770851;79;22488;-70
2021/10/12 10:11:15;;;;;;;21.85;12.65;;;;;;;15.03;45.11;99944.64;1762697;80;21032;-71
2021/10/12 10:13:41;;;;;;;17.82;12.65;;;;;;;14.88;44.11;99943.10;1788814;80;21035;-70
2021/10/12 10:16:08;;;;;;;18.90;11.40;;;;;;;14.77;44.87;99941.23;1788870;80;21043;-70
2021/10/12 10:18:39;;;;;;;25.97;12.43;;;;;;;14.74;43.32;99934.88;1788963;80;21036;-70
2021/10/12 10:21:06;;;;;;;21.25;13.30;;;;;;;14.58;43.20;99922.36;1760942;80;22680;-70
2021/10/12 10:23:57;;;;;;;19.45;13.03;;;;;;;14.42;43.98;99931.53;1788638;80;21031;-70
2021/10/12 10:26:32;;;;;;;22.85;12.82;;;;;;;14.38;44.39;99925.71;1762010;79;21155;-70
2021/10/12 10:29:29;;;;;;;23.27;12.85;;;;;;;14.37;44.85;99927.17;1757571;81;21023;-70
2021/10/12 10:31:59;;;;;;;18.75;12.68;;;;;;;14.38;44.76;99926.17;1757827;81;21609;-70
2021/10/12 10:34:42;;;;;;;20.20;12.85;;;;;;;14.41;45.02;99921.90;1757644;81;22488;-70
2021/10/12 10:37:21;;;;;;;20.00;12.03;;;;;;;14.46;44.81;99920.45;1757903;81;21602;-70
2021/10/12 10:39:51;;;;;;;18.80;12.73;;;;;;;14.48;44.30;99913.67;1757676;81;21430;-70
2021/10/12 10:42:45;;;;;;;19.77;12.05;;;;;;;14.52;44.58;99920.33;1758307;80;21012;-70
2021/10/12 10:45:12;;;;;;;22.48;12.78;;;;;;;14.59;44.20;99919.55;1757935;81;21083;-71
2021/10/12 10:47:47;;;;;;;18.60;12.13;;;;;;;14.59;43.51;99911.56;1757610;81;21884;-70
2021/10/12 10:50:27;;;;;;;22.50;12.23;;;;;;;14.55;43.46;99908.04;1764508;80;20997;-70
2021/10/12 10:52:56;;;;;;;18.37;11.85;;;;;;;14.53;43.82;99923.32;1757622;81;21071;-69
2021/10/12 10:55:28;;;;;;;17.07;12.10;;;;;;;14.54;43.15;99914.34;1754842;80;21087;-69
2021/10/12 10:58:16;;;;;;;18.10;12.63;;;;;;;14.52;43.67;99907.88;1733976;82;21509;-70
2021/10/12 11:00:55;;;;;;;17.48;12.75;;;;;;;14.59;44.09;99909.41;1763280;81;21626;-72
2021/10/12 11:03:36;;;;;;;27.45;16.17;;;;;;;14.77;44.45;99911.48;1763906;81;21502;-70
2021/10/12 11:06:08;;;;;;;29.70;15.10;;;;;;;14.98;44.20;99910.23;1764136;81;21015;-70
2021/10/12 11:08:39;;;;;;;26.90;15.13;;;;;;;15.09;44.15;99909.92;1763369;81;21008;-70
2021/10/12 11:11:06;;;;;;;23.70;15.85;;;;;;;15.22;43.85;99898.31;1763400;81;21110;-70
2021/10/12 11:13:41;;;;;;;23.95;16.07;;;;;;;15.35;44.03;99900.02;1764272;81;21811;-70
2021/10/12 11:16:12;;;;;;;26.45;16.52;;;;;;;15.49;43.64;99895.03;1753886;79;21023;-70
2021/10/12 11:18:42;;;;;;;30.37;17.27;;;;;;;15.52;43.29;99886.70;1733937;82;21481;-70
2021/10/12 11:21:11;;;;;;;27.58;16.67;;;;;;;15.46;43.29;99898.36;1733565;82;21039;-71
2021/10/12 11:23:54;;;;;;;31.85;18.50;;;;;;;15.34;43.39;99888.17;1733971;81;21015;-70